Central Sonoma County Latest

37 Stations

15 Minute Data | America/Los_Angeles
as of 5/6/26 12:22 PM PDT
Station Date Time Temp (°F) RH (%) Dew Pt (°F) Wind Spd (mph) Wind Dir (°) Wind Gust (mph) Latest Rain (In) Daily Rain (In) Daily Max Temp (°F) Daily Min Temp (°F)
Windsor-NW (Ranch 8) 5/6/26 1215 72.1   10.0 66   6 60.2   7.2 3.3   2.8 W | 275 8.0   4.8 0.00 0.00 73.3   8.8 54.3   2.3
Windsor-East (Ranch 16) 5/6/26 1215 70.7   9.1 58   10 55.2   4.1 3.1   1.3 S | 172 8.2   3.8 0.00 0.00 71.2   8.8 54.6   2.5
Mark West-North (Ranch 14) 5/6/26 1215 70.4   8.8 59   8 55.2   4.7 2.7   1.5 SSW | 199 7.3   3.2 0.00 0.00 72.2   10.0 54.3   2.3
Windsor-SE (Silk Rd) 5/6/26 1215 70.6   8.3 60   7 56.2   4.9 2.8   0.2 SSW | 202 6.3   0.0 0.00 0.00 71.1   8.2 54.7   2.3
Fulton-NW (Ranch 5) 5/6/26 1215 70.6   8.5 62   7 56.9   5.0 3.1   0.5 SSW | 202 7.3   1.6 0.00 0.00 71.7   9.1 54.3   2.2
Bisordi (Fulton) 5/6/26 1215 70.1   8.6 68   5 59.2   6.4 2.9   1.1 SSW | 194 6.3   0.2 0.00 0.00 70.4   8.8 54.5   2.1
Windsor-South (Laughlin Rd) 5/4/26 1515 70.3 46 48.5 - - - 0.00 - 71.4 51.0
Fulton-SE (Barnes Rd) 5/6/26 1215 70.8   9.3 61   7 56.9   5.7 2.6   2.6 SSE | 154 7.7   7.7 0.00 0.00 71.3   8.7 54.9   2.7
Fulton-SW (Ranch 21) 5/6/26 1215 70.0   7.6 61   5 56.1   5.1 2.9   0.0 S | 178 8.4   0.5 0.00 0.00 70.8   7.8 54.0   1.9
NW Santa Rosa (Piner Road) 5/6/26 1215 69.8   7.4 69   5 59.4   5.0 2.9   0.0 SSW | 194 6.1   1.1 0.00 0.00 70.4   7.6 54.3   2.2
River Rd South (Denner Ranch) 5/6/26 1215 71.2   7.8 58   6 55.6   4.5 4.3   0.3 SSE | 147 9.6   1.3 - - 72.0   7.3 53.9   2.4
West Santa Rosa (LOV Vineyard) 5/6/26 1215 69.8   7.3 62   5 56.0   4.8 2.0   1.8 SE | 131 6.0   3.1 0.00 0.00 70.7   7.8 54.4   2.3
Guerneville Rd (Prokopakis) 5/6/26 1215 72.8   5.8 59   2 57.5   4.4 - - - 0.00 0.00 73.1   5.9 54.7   2.0
SunnyView Vineyard (SCWC) 5/6/26 1215 71.4   6.6 59   4 56.3   4.5 2.1   1.2 SSE | 168 6.0   0.6 0.00 0.00 72.0   6.8 53.9   2.1
Guerneville Rd West (Balletto) 5/6/26 1215 69.8   7.1 69   2 59.2   6.1 3.5   1.0 SW | 231 8.5   2.4 0.00 0.00 70.2   7.2 54.6   2.2
Sanchietti Ranch 5/6/26 1215 70.6   7.5 74   3 62.1   6.3 4.6   0.4 SSW | 198 9.6   0.4 0.00 0.00 71.3   7.4 55.2   2.0
Occidental Rd (Sebastopol) 5/6/26 1215 70.0   7.0 100   0 69.9   6.9 2.3   1.1 SSW | 199 7.9   0.4 0.00 0.00 71.0   5.8 53.8   1.8
Harper's Rest (Windsor-West) 5/6/26 1215 71.4   9.9 56   10 54.8   4.8 3.2   0.8 SE | 124 6.8   1.3 0.00 0.00 72.0   8.2 53.4   2.7
Lower Westside Rd (Ranch 12) 5/6/26 1215 73.0   10.1 54   11 55.2   4.2 3.7   0.8 SE | 132 7.2   0.7 0.00 0.00 73.8   9.5 54.6   3.0
Guerneville (Laughlin Rd) 5/6/26 1215 72.2   8.2 57   10 56.3   3.2 6.1   3.5 SSE | 162 10.7   2.6 0.00 0.00 73.7   9.5 53.9   3.1
Korbel (Winery) 5/6/26 1215 69.7   6.9 60   7 55.4   3.4 4.4   1.5 SSW | 207 9.1   0.7 0.00 0.00 73.4   9.9 54.7   3.2
Forestville (Shone Farms) 5/6/26 1215 71.3   8.2 59   8 56.2   4.4 2.2   0.1 S | 174 5.8   0.3 0.00 0.00 73.3   8.4 52.3   1.2
Forestville-NE (Ranch 30) 5/6/26 1215 70.6   5.1 63   5 57.5   3.0 3.7   0.3 S | 186 7.8   0.4 0.00 0.00 72.4   5.8 53.9   2.7
Foggy Bend (Ranch 41) 5/6/26 1215 71.2   8.5 64   9 58.5   4.6 3.6   1.3 SE | 142 7.7   0.7 0.00 0.00 71.8   8.7 55.0   2.5
Last Stop 5/6/26 1215 70.7   9.0 70   3 60.4   7.6 3.1   0.2 SSE | 161 8.8   1.2 0.00 0.00 71.0   8.0 54.3   2.3
Green Valley Vineyard 5/6/26 1215 69.4   7.3 60   9 55.1   3.3 3.5   0.4 NNE | 33 9.4   1.1 0.00 0.00 70.5   7.6 53.4   2.4
Park Royal 5/6/26 1215 70.5   7.1 61   2 56.5   5.7 - - - 0.00 0.00 70.9   6.9 54.2   2.3
Merino 5/6/26 1215 70.1   6.6 70   2 60.1   5.7 3.3   0.5 S | 190 10.0   4.2 0.00 0.00 70.6   6.6 54.3   2.2
Green Valley (Sanchietti) 5/6/26 1215 72.6   7.6 - - - - - - - 73.8   8.3 54.8   2.3
Keefer Ranch (Green Valley) 5/6/26 1215 69.6   6.9 69   3 58.8   5.6 - - - 0.00 0.00 69.6   6.8 54.4   2.3
Graton-West (Dutton Ranch) 5/6/26 1215 71.6   8.9 78   22 64.3   1.7 2.9   0.4 SSE | 156 7.5   0.5 0.00 0.00 72.6   8.8 54.4   2.2
Graton-South (Mill Station Rd) 5/6/26 1215 67.2   5.5 69   2 56.8   4.5 2.8   0.1 SSW | 201 6.2   0.6 0.00 0.00 69.0   6.1 53.7   2.1
Occidental (Horseshoe Bend) 5/6/26 1215 65.1   6.0 70   6 55.2   3.6 - - - 0.00 0.00 65.9   6.3 51.4   1.2
Sexton Valley (Jacqueline's Blk) 5/6/26 1215 67.5   5.6 74   2 58.8   4.8 2.5   1.9 W | 261 9.0   3.1 0.00 0.00 69.4   6.6 54.2   2.0
Sebastopol Hills (Burnside Rd) 5/6/26 1215 63.8   3.7 80   1 57.5   3.4 5.7   1.1 SSW | 206 9.7   0.4 0.00 0.01 64.7   3.4 52.3   1.3
Pleasant Hill 5/6/26 1215 67.9   5.4 66   5 56.0   3.3 5.6   0.7 SW | 234 10.4   0.6 0.00 0.01 68.9   5.4 53.2   2.1
Seaview/Fort Ross (Hirsch) 5/6/26 1215 60.1   6.5 77   12 52.7   2.4 4.1   1.8 WSW | 242 7.6   2.7 0.00 0.00 61.4   7.5 49.0   2.3
Max     73.0 100 69.9 6.1 - 10.7 0.00 0.01 73.8 55.2
Avg     69.9 66 57.7 3.4 - 8.0 0.00 - - -
Min     60.1 54 52.7 2.0 - 5.8 0.00 0.00 61.4 49.0